sensor_id;sensor_type;location;lat;lon;timestamp;pressure;altitude;pressure_sealevel;temperature;humidity
7524;BME280;3803;51.666;7.630;2022-10-28T00:00:07;101282.81;;;21.26;52.66
7524;BME280;3803;51.666;7.630;2022-10-28T00:00:29;101274.88;;;21.23;52.61
7524;BME280;3803;51.666;7.630;2022-10-28T00:00:50;101279.28;;;21.24;52.65
7524;BME280;3803;51.666;7.630;2022-10-28T00:01:15;101289.88;;;21.30;52.68
7524;BME280;3803;51.666;7.630;2022-10-28T00:01:35;101281.94;;;21.26;52.78
7524;BME280;3803;51.666;7.630;2022-10-28T00:01:56;101271.38;;;21.21;52.84
7524;BME280;3803;51.666;7.630;2022-10-28T00:02:17;101284.59;;;21.24;52.79
7524;BME280;3803;51.666;7.630;2022-10-28T00:02:37;101282.84;;;21.23;52.67
7524;BME280;3803;51.666;7.630;2022-10-28T00:03:00;101281.09;;;21.22;52.79
7524;BME280;3803;51.666;7.630;2022-10-28T00:03:21;101289.00;;;21.27;52.75
7524;BME280;3803;51.666;7.630;2022-10-28T00:03:44;101278.44;;;21.19;52.97
7524;BME280;3803;51.666;7.630;2022-10-28T00:04:05;101286.41;;;21.22;52.94
7524;BME280;3803;51.666;7.630;2022-10-28T00:04:25;101289.00;;;21.25;52.95
7524;BME280;3803;51.666;7.630;2022-10-28T00:04:46;101282.88;;;21.17;53.13
7524;BME280;3803;51.666;7.630;2022-10-28T00:05:07;101276.69;;;21.18;53.07
7524;BME280;3803;51.666;7.630;2022-10-28T00:05:28;101269.66;;;21.14;52.95
7524;BME280;3803;51.666;7.630;2022-10-28T00:06:04;101286.41;;;21.19;53.11
7524;BME280;3803;51.666;7.630;2022-10-28T00:06:28;101269.66;;;21.14;52.93
7524;BME280;3803;51.666;7.630;2022-10-28T00:06:50;101277.53;;;21.20;52.80
7524;BME280;3803;51.666;7.630;2022-10-28T00:07:11;101267.88;;;21.16;52.80
7524;BME280;3803;51.666;7.630;2022-10-28T00:07:32;101278.47;;;21.17;52.71
7524;BME280;3803;51.666;7.630;2022-10-28T00:07:53;101293.47;;;21.25;52.92
7524;BME280;3803;51.666;7.630;2022-10-28T00:08:13;101282.03;;;21.16;53.03
7524;BME280;3803;51.666;7.630;2022-10-28T00:08:34;101289.91;;;21.24;53.08
7524;BME280;3803;51.666;7.630;2022-10-28T00:08:55;101276.72;;;21.15;52.84
7524;BME280;3803;51.666;7.630;2022-10-28T00:09:17;101282.84;;;21.20;53.02
7524;BME280;3803;51.666;7.630;2022-10-28T00:09:38;101284.66;;;21.21;52.89
7524;BME280;3803;51.666;7.630;2022-10-28T00:10:00;101282.84;;;21.23;52.60
7524;BME280;3803;51.666;7.630;2022-10-28T00:10:21;101284.59;;;21.24;52.78
7524;BME280;3803;51.666;7.630;2022-10-28T00:10:41;101276.69;;;21.19;52.65
7524;BME280;3803;51.666;7.630;2022-10-28T00:11:09;101292.53;;;21.29;52.71
7524;BME280;3803;51.666;7.630;2022-10-28T00:11:32;101276.69;;;21.19;52.81
7524;BME280;3803;51.666;7.630;2022-10-28T00:11:52;101282.81;;;21.26;52.74
7524;BME280;3803;51.666;7.630;2022-10-28T00:12:13;101274.94;;;21.18;52.93
7524;BME280;3803;51.666;7.630;2022-10-28T00:12:36;101284.59;;;21.26;52.79
7524;BME280;3803;51.666;7.630;2022-10-28T00:12:57;101272.25;;;21.20;52.61
7524;BME280;3803;51.666;7.630;2022-10-28T00:13:18;101279.34;;;21.21;52.71
7524;BME280;3803;51.666;7.630;2022-10-28T00:13:40;101279.34;;;21.19;52.94
7524;BME280;3803;51.666;7.630;2022-10-28T00:14:02;101279.34;;;21.21;52.85
7524;BME280;3803;51.666;7.630;2022-10-28T00:14:23;101273.13;;;21.19;52.88
7524;BME280;3803;51.666;7.630;2022-10-28T00:14:44;101280.19;;;21.25;52.86
7524;BME280;3803;51.666;7.630;2022-10-28T00:15:05;101263.47;;;21.13;52.80
7524;BME280;3803;51.666;7.630;2022-10-28T00:15:26;101264.31;;;21.17;52.87
7524;BME280;3803;51.666;7.630;2022-10-28T00:15:48;101273.16;;;21.17;52.87
7524;BME280;3803;51.666;7.630;2022-10-28T00:16:14;101267.81;;;21.19;52.85
7524;BME280;3803;51.666;7.630;2022-10-28T00:16:36;101259.94;;;21.13;52.87
7524;BME280;3803;51.666;7.630;2022-10-28T00:16:57;101277.53;;;21.20;52.71
7524;BME280;3803;51.666;7.630;2022-10-28T00:17:17;101268.72;;;21.21;52.82
7524;BME280;3803;51.666;7.630;2022-10-28T00:17:38;101263.47;;;21.15;52.80
7524;BME280;3803;51.666;7.630;2022-10-28T00:17:59;101266.97;;;21.17;52.75
7524;BME280;3803;51.666;7.630;2022-10-28T00:18:20;101281.97;;;21.22;52.87
7524;BME280;3803;51.666;7.630;2022-10-28T00:18:42;101269.63;;;21.17;52.85
7524;BME280;3803;51.666;7.630;2022-10-28T00:19:05;101267.81;;;21.19;52.88
7524;BME280;3803;51.666;7.630;2022-10-28T00:19:26;101273.16;;;21.17;52.85
7524;BME280;3803;51.666;7.630;2022-10-28T00:19:46;101264.34;;;21.10;52.93
7524;BME280;3803;51.666;7.630;2022-10-28T00:20:07;101263.47;;;21.15;52.99
7524;BME280;3803;51.666;7.630;2022-10-28T00:20:29;101268.75;;;21.15;52.80
7524;BME280;3803;51.666;7.630;2022-10-28T00:20:50;101267.00;;;21.10;52.87
7524;BME280;3803;51.666;7.630;2022-10-28T00:21:18;101262.59;;;21.11;52.92
7524;BME280;3803;51.666;7.630;2022-10-28T00:21:41;101272.28;;;21.17;52.91
7524;BME280;3803;51.666;7.630;2022-10-28T00:22:02;101277.59;;;21.17;52.81
7524;BME280;3803;51.666;7.630;2022-10-28T00:22:23;101265.25;;;21.09;52.98
7524;BME280;3803;51.666;7.630;2022-10-28T00:22:43;101268.78;;;21.12;52.76
7524;BME280;3803;51.666;7.630;2022-10-28T00:23:04;101267.91;;;21.11;53.09
7524;BME280;3803;51.666;7.630;2022-10-28T00:23:24;101274.94;;;21.17;53.00
7524;BME280;3803;51.666;7.630;2022-10-28T00:23:45;101265.25;;;21.09;53.02
7524;BME280;3803;51.666;7.630;2022-10-28T00:24:07;101267.06;;;21.07;52.95
7524;BME280;3803;51.666;7.630;2022-10-28T00:24:29;101267.03;;;21.09;52.99
7524;BME280;3803;51.666;7.630;2022-10-28T00:24:50;101271.47;;;21.10;52.82
7524;BME280;3803;51.666;7.630;2022-10-28T00:25:11;101262.59;;;21.08;52.86
7524;BME280;3803;51.666;7.630;2022-10-28T00:25:32;101269.69;;;21.09;53.00
7524;BME280;3803;51.666;7.630;2022-10-28T00:25:52;101274.06;;;21.15;53.21
7524;BME280;3803;51.666;7.630;2022-10-28T00:26:18;101282.00;;;21.19;52.94
7524;BME280;3803;51.666;7.630;2022-10-28T00:26:40;101278.47;;;21.17;52.88
7524;BME280;3803;51.666;7.630;2022-10-28T00:27:05;101282.88;;;21.17;52.77
7524;BME280;3803;51.666;7.630;2022-10-28T00:27:26;101274.06;;;21.15;53.10
7524;BME280;3803;51.666;7.630;2022-10-28T00:27:50;101268.81;;;21.08;53.06
7524;BME280;3803;51.666;7.630;2022-10-28T00:28:11;101275.84;;;21.14;52.91
7524;BME280;3803;51.666;7.630;2022-10-28T00:28:32;101267.06;;;21.07;53.02
7524;BME280;3803;51.666;7.630;2022-10-28T00:28:58;101267.06;;;21.07;53.06
7524;BME280;3803;51.666;7.630;2022-10-28T00:29:19;101274.06;;;21.12;53.11
7524;BME280;3803;51.666;7.630;2022-10-28T00:29:39;101267.06;;;21.07;52.86
7524;BME280;3803;51.666;7.630;2022-10-28T00:30:00;101268.81;;;21.08;53.04
7524;BME280;3803;51.666;7.630;2022-10-28T00:30:22;101275.88;;;21.11;52.97
7524;BME280;3803;51.666;7.630;2022-10-28T00:30:43;101263.59;;;21.01;53.19
7524;BME280;3803;51.666;7.630;2022-10-28T00:31:06;101265.31;;;21.03;53.04
7524;BME280;3803;51.666;7.630;2022-10-28T00:31:28;101262.69;;;21.00;53.37
7524;BME280;3803;51.666;7.630;2022-10-28T00:31:49;101274.13;;;21.08;53.05
7524;BME280;3803;51.666;7.630;2022-10-28T00:32:11;101267.09;;;21.01;53.32
7524;BME280;3803;51.666;7.630;2022-10-28T00:32:32;101262.72;;;20.95;53.45
7524;BME280;3803;51.666;7.630;2022-10-28T00:32:53;101267.13;;;20.98;53.62
7524;BME280;3803;51.666;7.630;2022-10-28T00:33:13;101256.53;;;20.95;53.57
7524;BME280;3803;51.666;7.630;2022-10-28T00:33:35;101255.66;;;20.93;53.45
7524;BME280;3803;51.666;7.630;2022-10-28T00:34:00;101258.34;;;20.90;53.67
7524;BME280;3803;51.666;7.630;2022-10-28T00:34:21;101266.28;;;20.91;53.86
7524;BME280;3803;51.666;7.630;2022-10-28T00:34:41;101253.94;;;20.87;53.73
7524;BME280;3803;51.666;7.630;2022-10-28T00:35:02;101265.41;;;20.91;53.82
7524;BME280;3803;51.666;7.630;2022-10-28T00:35:23;101258.38;;;20.84;54.02
7524;BME280;3803;51.666;7.630;2022-10-28T00:35:43;101258.34;;;20.90;53.89
7524;BME280;3803;51.666;7.630;2022-10-28T00:36:11;101278.63;;;20.94;54.02
7524;BME280;3803;51.666;7.630;2022-10-28T00:36:35;101272.47;;;20.92;54.25
7524;BME280;3803;51.666;7.630;2022-10-28T00:36:56;101262.75;;;20.88;54.11
7524;BME280;3803;51.666;7.630;2022-10-28T00:37:17;101270.69;;;20.94;53.98
7524;BME280;3803;51.666;7.630;2022-10-28T00:37:38;101260.09;;;20.88;54.17
7524;BME280;3803;51.666;7.630;2022-10-28T00:37:59;101261.03;;;20.85;54.16
7524;BME280;3803;51.666;7.630;2022-10-28T00:38:19;101264.56;;;20.84;54.08
7524;BME280;3803;51.666;7.630;2022-10-28T00:38:41;101276.03;;;20.92;54.07
7524;BME280;3803;51.666;7.630;2022-10-28T00:39:06;101263.63;;;20.93;53.99
7524;BME280;3803;51.666;7.630;2022-10-28T00:39:29;101266.19;;;21.05;53.86
7524;BME280;3803;51.666;7.630;2022-10-28T00:39:50;101253.81;;;21.03;53.75
7524;BME280;3803;51.666;7.630;2022-10-28T00:40:11;101265.25;;;21.13;53.67
7524;BME280;3803;51.666;7.630;2022-10-28T00:40:34;101277.59;;;21.17;53.67
7524;BME280;3803;51.666;7.630;2022-10-28T00:40:55;101247.69;;;20.93;53.77
7524;BME280;3803;51.666;7.630;2022-10-28T00:41:19;101265.41;;;20.88;54.18
7524;BME280;3803;51.666;7.630;2022-10-28T00:41:45;101258.38;;;20.84;54.39
7524;BME280;3803;51.666;7.630;2022-10-28T00:42:05;101260.22;;;20.77;54.55
7524;BME280;3803;51.666;7.630;2022-10-28T00:42:27;101246.94;;;20.72;54.66
7524;BME280;3803;51.666;7.630;2022-10-28T00:42:49;101258.47;;;20.74;54.46
7524;BME280;3803;51.666;7.630;2022-10-28T00:43:11;101251.41;;;20.73;54.57
7524;BME280;3803;51.666;7.630;2022-10-28T00:43:51;101255.78;;;20.76;54.39
7524;BME280;3803;51.666;7.630;2022-10-28T00:45:10;101252.25;;;20.77;54.22
7524;BME280;3803;51.666;7.630;2022-10-28T00:45:31;101259.31;;;20.75;54.18
7524;BME280;3803;51.666;7.630;2022-10-28T00:45:53;101264.59;;;20.81;54.08
7524;BME280;3803;51.666;7.630;2022-10-28T00:46:48;101263.69;;;20.84;53.75
7524;BME280;3803;51.666;7.630;2022-10-28T00:48:01;101252.22;;;20.81;53.68
7524;BME280;3803;51.666;7.630;2022-10-28T00:48:23;101258.34;;;20.87;53.67
7524;BME280;3803;51.666;7.630;2022-10-28T00:48:49;101252.19;;;20.85;53.46
7524;BME280;3803;51.666;7.630;2022-10-28T00:49:17;101261.00;;;20.87;53.64
7524;BME280;3803;51.666;7.630;2022-10-28T00:49:39;101254.84;;;20.85;53.37
7524;BME280;3803;51.666;7.630;2022-10-28T00:50:42;101256.41;;;21.14;52.87
7524;BME280;3803;51.666;7.630;2022-10-28T00:51:04;101259.88;;;21.19;52.72
7524;BME280;3803;51.666;7.630;2022-10-28T00:51:27;101261.66;;;21.18;52.56
7524;BME280;3803;51.666;7.630;2022-10-28T00:51:57;101264.19;;;21.31;52.42
7524;BME280;3803;51.666;7.630;2022-10-28T00:52:23;101257.25;;;21.14;52.55
7524;BME280;3803;51.666;7.630;2022-10-28T00:52:50;101256.47;;;21.01;52.96
7524;BME280;3803;51.666;7.630;2022-10-28T00:53:19;101260.03;;;21.00;52.99
7524;BME280;3803;51.666;7.630;2022-10-28T00:53:42;101259.19;;;20.95;52.95
7524;BME280;3803;51.666;7.630;2022-10-28T00:54:04;101253.03;;;20.90;53.15
7524;BME280;3803;51.666;7.630;2022-10-28T00:54:26;101267.16;;;20.92;53.21
7524;BME280;3803;51.666;7.630;2022-10-28T00:54:49;101250.41;;;20.87;53.07
7524;BME280;3803;51.666;7.630;2022-10-28T00:55:12;101259.25;;;20.86;53.17
7524;BME280;3803;51.666;7.630;2022-10-28T00:55:35;101253.97;;;20.82;52.98
7524;BME280;3803;51.666;7.630;2022-10-28T00:55:58;101248.69;;;20.82;53.36
7524;BME280;3803;51.666;7.630;2022-10-28T00:56:21;101253.09;;;20.84;53.13
7524;BME280;3803;51.666;7.630;2022-10-28T00:56:45;101266.31;;;20.87;53.23
7524;BME280;3803;51.666;7.630;2022-10-28T00:57:10;101253.13;;;20.80;53.21
7524;BME280;3803;51.666;7.630;2022-10-28T00:57:34;101264.56;;;20.89;53.16
7524;BME280;3803;51.666;7.630;2022-10-28T00:57:57;101257.53;;;20.81;53.01
7524;BME280;3803;51.666;7.630;2022-10-28T00:58:21;101253.09;;;20.84;52.83
7524;BME280;3803;51.666;7.630;2022-10-28T00:58:45;101253.97;;;20.79;52.96
7524;BME280;3803;51.666;7.630;2022-10-28T00:59:12;101245.16;;;20.77;53.00
7524;BME280;3803;51.666;7.630;2022-10-28T00:59:38;101257.53;;;20.81;52.92
7524;BME280;3803;51.666;7.630;2022-10-28T01:00:04;101260.94;;;20.99;52.77
7524;BME280;3803;51.666;7.630;2022-10-28T01:00:26;101249.38;;;21.05;52.77
7524;BME280;3803;51.666;7.630;2022-10-28T01:00:48;101253.75;;;21.10;52.44
7524;BME280;3803;51.666;7.630;2022-10-28T01:01:09;101260.84;;;21.07;52.45
7524;BME280;3803;51.666;7.630;2022-10-28T01:01:30;101256.47;;;21.04;52.50
7524;BME280;3803;51.666;7.630;2022-10-28T01:01:51;101260.88;;;21.05;52.70
7524;BME280;3803;51.666;7.630;2022-10-28T01:02:12;101262.63;;;21.06;52.74
7524;BME280;3803;51.666;7.630;2022-10-28T01:02:38;101249.47;;;20.95;52.79
7524;BME280;3803;51.666;7.630;2022-10-28T01:03:01;101253.94;;;20.89;53.04
7524;BME280;3803;51.666;7.630;2022-10-28T01:03:23;101248.63;;;20.84;53.25
7524;BME280;3803;51.666;7.630;2022-10-28T01:03:46;101250.34;;;20.93;53.00
7524;BME280;3803;51.666;7.630;2022-10-28T01:04:07;101259.19;;;20.95;53.18
7524;BME280;3803;51.666;7.630;2022-10-28T01:04:28;101249.47;;;20.94;52.94
7524;BME280;3803;51.666;7.630;2022-10-28T01:04:49;101240.59;;;20.95;52.81
7524;BME280;3803;51.666;7.630;2022-10-28T01:05:11;101251.19;;;21.01;52.89
7524;BME280;3803;51.666;7.630;2022-10-28T01:05:35;101245.91;;;20.98;52.85
7524;BME280;3803;51.666;7.630;2022-10-28T01:05:56;101252.94;;;21.05;52.66
7524;BME280;3803;51.666;7.630;2022-10-28T01:06:17;101256.47;;;21.04;52.87
7524;BME280;3803;51.666;7.630;2022-10-28T01:06:39;101244.06;;;21.03;52.55
7524;BME280;3803;51.666;7.630;2022-10-28T01:07:02;101252.00;;;21.09;52.60
7524;BME280;3803;51.666;7.630;2022-10-28T01:07:23;101239.75;;;20.94;52.76
7524;BME280;3803;51.666;7.630;2022-10-28T01:07:44;101247.75;;;20.90;52.92
7524;BME280;3803;51.666;7.630;2022-10-28T01:08:05;101242.50;;;20.80;53.23
7524;BME280;3803;51.666;7.630;2022-10-28T01:08:26;101239.84;;;20.76;53.21
7524;BME280;3803;51.666;7.630;2022-10-28T01:08:46;101235.47;;;20.73;53.14
7524;BME280;3803;51.666;7.630;2022-10-28T01:09:07;101231.94;;;20.71;53.29
7524;BME280;3803;51.666;7.630;2022-10-28T01:09:28;101230.19;;;20.72;53.31
7524;BME280;3803;51.666;7.630;2022-10-28T01:09:49;101230.19;;;20.70;53.25
7524;BME280;3803;51.666;7.630;2022-10-28T01:10:11;101234.59;;;20.69;53.38
7524;BME280;3803;51.666;7.630;2022-10-28T01:12:22;101239.00;;;20.69;53.51
7524;BME280;3803;51.666;7.630;2022-10-28T01:13:19;101246.09;;;20.73;53.68
7524;BME280;3803;51.666;7.630;2022-10-28T01:14:15;101237.25;;;20.71;53.65
7524;BME280;3803;51.666;7.630;2022-10-28T01:15:11;101239.03;;;20.71;53.65
7524;BME280;3803;51.666;7.630;2022-10-28T01:15:45;101218.72;;;20.60;53.83
7524;BME280;3803;51.666;7.630;2022-10-28T01:17:08;101217.91;;;20.57;54.19
7524;BME280;3803;51.666;7.630;2022-10-28T01:17:11;101238.13;;;20.68;53.84
7524;BME280;3803;51.666;7.630;2022-10-28T01:17:43;101223.19;;;20.57;54.19
7524;BME280;3803;51.666;7.630;2022-10-28T01:18:27;101220.53;;;20.55;54.27
7524;BME280;3803;51.666;7.630;2022-10-28T01:19:01;101224.09;;;20.54;54.48
7524;BME280;3803;51.666;7.630;2022-10-28T01:19:52;101228.47;;;20.60;54.31
7524;BME280;3803;51.666;7.630;2022-10-28T01:22:22;101207.28;;;20.55;54.02
7524;BME280;3803;51.666;7.630;2022-10-28T01:24:53;101214.38;;;20.51;54.04
7524;BME280;3803;51.666;7.630;2022-10-28T01:29:43;101228.06;;;21.17;51.94
7524;BME280;3803;51.666;7.630;2022-10-28T01:30:49;101219.25;;;21.14;52.04
7524;BME280;3803;51.666;7.630;2022-10-28T01:31:20;101211.28;;;21.12;52.20
7524;BME280;3803;51.666;7.630;2022-10-28T01:31:58;101220.16;;;21.08;52.47
7524;BME280;3803;51.666;7.630;2022-10-28T01:32:28;101220.09;;;21.14;52.58
7524;BME280;3803;51.666;7.630;2022-10-28T01:33:11;101207.13;;;20.81;53.23
7524;BME280;3803;51.666;7.630;2022-10-28T01:33:46;101230.16;;;20.78;53.56
7524;BME280;3803;51.666;7.630;2022-10-28T01:34:11;101217.81;;;20.71;53.86
7524;BME280;3803;51.666;7.630;2022-10-28T01:35:04;101217.81;;;20.66;53.93
7524;BME280;3803;51.666;7.630;2022-10-28T01:35:34;101233.78;;;20.60;54.37
7524;BME280;3803;51.666;7.630;2022-10-28T01:36:51;101224.97;;;20.51;54.72
7524;BME280;3803;51.666;7.630;2022-10-28T01:37:36;101219.69;;;20.48;54.86
7524;BME280;3803;51.666;7.630;2022-10-28T01:38:41;101206.50;;;20.40;54.43
7524;BME280;3803;51.666;7.630;2022-10-28T01:39:17;101215.34;;;20.38;54.50
7524;BME280;3803;51.666;7.630;2022-10-28T01:39:48;101215.38;;;20.35;54.76
7524;BME280;3803;51.666;7.630;2022-10-28T01:40:37;101217.13;;;20.33;54.79
7524;BME280;3803;51.666;7.630;2022-10-28T01:41:25;101216.22;;;20.38;54.81
7524;BME280;3803;51.666;7.630;2022-10-28T01:43:31;101209.16;;;20.37;55.16
7524;BME280;3803;51.666;7.630;2022-10-28T01:44:14;101202.16;;;20.28;55.07
7524;BME280;3803;51.666;7.630;2022-10-28T01:44:47;101208.34;;;20.29;55.26
7524;BME280;3803;51.666;7.630;2022-10-28T01:45:20;101204.81;;;20.22;55.45
7524;BME280;3803;51.666;7.630;2022-10-28T01:45:59;101215.38;;;20.32;55.34
7524;BME280;3803;51.666;7.630;2022-10-28T01:46:27;101196.00;;;20.20;55.45
7524;BME280;3803;51.666;7.630;2022-10-28T01:46:53;101210.09;;;20.28;55.54
7524;BME280;3803;51.666;7.630;2022-10-28T01:47:25;101203.94;;;20.23;55.45
7524;BME280;3803;51.666;7.630;2022-10-28T01:48:00;101205.72;;;20.23;55.49
7524;BME280;3803;51.666;7.630;2022-10-28T01:48:34;101199.56;;;20.18;55.47
7524;BME280;3803;51.666;7.630;2022-10-28T01:49:04;101199.56;;;20.19;55.48
7524;BME280;3803;51.666;7.630;2022-10-28T01:49:51;101219.81;;;20.23;55.50
7524;BME280;3803;51.666;7.630;2022-10-28T01:50:20;101211.00;;;20.23;55.46
7524;BME280;3803;51.666;7.630;2022-10-28T01:50:49;101211.91;;;20.20;55.43
7524;BME280;3803;51.666;7.630;2022-10-28T01:52:04;101198.69;;;20.17;55.60
7524;BME280;3803;51.666;7.630;2022-10-28T01:52:28;101195.16;;;20.17;55.54
7524;BME280;3803;51.666;7.630;2022-10-28T01:52:52;101217.19;;;20.25;55.55
7524;BME280;3803;51.666;7.630;2022-10-28T01:53:18;101193.38;;;20.14;55.58
7524;BME280;3803;51.666;7.630;2022-10-28T01:53:43;101198.69;;;20.17;55.59
7524;BME280;3803;51.666;7.630;2022-10-28T01:54:06;101198.69;;;20.17;55.65
7524;BME280;3803;51.666;7.630;2022-10-28T01:54:31;101199.56;;;20.18;55.87
7524;BME280;3803;51.666;7.630;2022-10-28T01:54:59;101192.53;;;20.13;55.65
7524;BME280;3803;51.666;7.630;2022-10-28T01:55:25;101209.28;;;20.17;55.63
7524;BME280;3803;51.666;7.630;2022-10-28T01:55:49;101200.47;;;20.13;55.71
7524;BME280;3803;51.666;7.630;2022-10-28T01:56:15;101194.31;;;20.10;55.76
7524;BME280;3803;51.666;7.630;2022-10-28T01:56:39;101209.28;;;20.14;55.88
7524;BME280;3803;51.666;7.630;2022-10-28T01:57:02;101212.81;;;20.19;55.84
7524;BME280;3803;51.666;7.630;2022-10-28T01:57:26;101201.38;;;20.11;55.78
7524;BME280;3803;51.666;7.630;2022-10-28T01:57:52;101207.53;;;20.13;55.94
7524;BME280;3803;51.666;7.630;2022-10-28T01:58:17;101211.06;;;20.13;55.97
7524;BME280;3803;51.666;7.630;2022-10-28T01:58:41;101205.75;;;20.10;56.15
7524;BME280;3803;51.666;7.630;2022-10-28T01:59:04;101194.34;;;20.05;56.17
7524;BME280;3803;51.666;7.630;2022-10-28T01:59:27;101204.91;;;20.07;55.99
7524;BME280;3803;51.666;7.630;2022-10-28T01:59:48;101196.09;;;20.06;56.21
7524;BME280;3803;51.666;7.630;2022-10-28T02:00:10;101202.25;;;20.07;56.29
7524;BME280;3803;51.666;7.630;2022-10-28T02:00:35;101200.50;;;20.06;56.32
7524;BME280;3803;51.666;7.630;2022-10-28T02:00:58;101202.28;;;20.04;56.34
7524;BME280;3803;51.666;7.630;2022-10-28T02:01:21;101214.59;;;20.09;56.33
7524;BME280;3803;51.666;7.630;2022-10-28T02:01:42;101217.28;;;20.06;56.42
7524;BME280;3803;51.666;7.630;2022-10-28T02:02:03;101204.91;;;20.00;56.48
7524;BME280;3803;51.666;7.630;2022-10-28T02:02:23;101201.41;;;20.02;56.41
7524;BME280;3803;51.666;7.630;2022-10-28T02:02:47;101201.41;;;19.97;56.27
7524;BME280;3803;51.666;7.630;2022-10-28T02:03:08;101197.88;;;20.01;56.29
7524;BME280;3803;51.666;7.630;2022-10-28T02:03:31;101212.00;;;20.02;56.23
7524;BME280;3803;51.666;7.630;2022-10-28T02:03:53;101223.44;;;20.10;56.32
7524;BME280;3803;51.666;7.630;2022-10-28T02:04:14;101222.53;;;20.17;55.85
7524;BME280;3803;51.666;7.630;2022-10-28T02:04:35;101220.69;;;20.30;55.69
7524;BME280;3803;51.666;7.630;2022-10-28T02:05:50;101231.22;;;20.43;55.21
7524;BME280;3803;51.666;7.630;2022-10-28T02:06:21;101223.25;;;20.44;55.51
7524;BME280;3803;51.666;7.630;2022-10-28T02:06:45;101225.91;;;20.43;55.25
7524;BME280;3803;51.666;7.630;2022-10-28T02:07:08;101226.03;;;20.24;55.66
7524;BME280;3803;51.666;7.630;2022-10-28T02:07:29;101225.09;;;20.30;55.54
7524;BME280;3803;51.666;7.630;2022-10-28T02:07:51;101219.78;;;20.33;55.46
7524;BME280;3803;51.666;7.630;2022-10-28T02:09:56;101221.72;;;19.99;56.56
7524;BME280;3803;51.666;7.630;2022-10-28T02:10:24;101234.94;;;19.99;56.59
7524;BME280;3803;51.666;7.630;2022-10-28T02:11:37;101220.84;;;19.93;56.78
7524;BME280;3803;51.666;7.630;2022-10-28T02:12:34;101230.56;;;19.94;56.90
7524;BME280;3803;51.666;7.630;2022-10-28T02:12:59;101222.63;;;19.89;57.08
7524;BME280;3803;51.666;7.630;2022-10-28T02:14:13;101219.97;;;19.86;56.83
7524;BME280;3803;51.666;7.630;2022-10-28T02:14:45;101220.88;;;19.88;57.00
7524;BME280;3803;51.666;7.630;2022-10-28T02:15:36;101209.41;;;19.81;57.22
7524;BME280;3803;51.666;7.630;2022-10-28T02:16:06;101219.09;;;19.89;57.13
7524;BME280;3803;51.666;7.630;2022-10-28T02:16:38;101222.59;;;19.98;57.21
7524;BME280;3803;51.666;7.630;2022-10-28T02:17:17;101213.78;;;19.96;57.05
7524;BME280;3803;51.666;7.630;2022-10-28T02:17:56;101225.22;;;20.03;57.04
7524;BME280;3803;51.666;7.630;2022-10-28T02:18:29;101202.31;;;19.94;56.87
7524;BME280;3803;51.666;7.630;2022-10-28T02:19:12;101196.13;;;19.94;57.04
7524;BME280;3803;51.666;7.630;2022-10-28T02:19:42;101212.88;;;20.00;56.95
7524;BME280;3803;51.666;7.630;2022-10-28T02:21:06;101188.16;;;19.87;56.99
7524;BME280;3803;51.666;7.630;2022-10-28T02:25:06;101202.34;;;19.88;57.29
7524;BME280;3803;51.666;7.630;2022-10-28T02:25:32;101209.38;;;19.94;57.14
7524;BME280;3803;51.666;7.630;2022-10-28T02:26:39;101195.25;;;19.87;57.07
7524;BME280;3803;51.666;7.630;2022-10-28T02:27:11;101197.91;;;19.85;57.27
7524;BME280;3803;51.666;7.630;2022-10-28T02:27:55;101207.63;;;19.91;57.28
7524;BME280;3803;51.666;7.630;2022-10-28T02:28:24;101204.06;;;19.98;57.14
7524;BME280;3803;51.666;7.630;2022-10-28T02:29:32;101205.84;;;19.89;57.39
7524;BME280;3803;51.666;7.630;2022-10-28T02:30:21;101189.09;;;19.82;57.52
7524;BME280;3803;51.666;7.630;2022-10-28T02:30:56;101186.44;;;19.82;57.46
7524;BME280;3803;51.666;7.630;2022-10-28T02:31:25;101183.78;;;19.80;57.15
7524;BME280;3803;51.666;7.630;2022-10-28T02:31:51;101188.22;;;19.80;57.26
7524;BME280;3803;51.666;7.630;2022-10-28T02:32:18;101184.69;;;19.81;57.28
7524;BME280;3803;51.666;7.630;2022-10-28T02:32:46;101182.94;;;19.80;57.23
7524;BME280;3803;51.666;7.630;2022-10-28T02:33:11;101179.38;;;19.81;57.16
7524;BME280;3803;51.666;7.630;2022-10-28T02:33:37;101188.22;;;19.80;57.26
7524;BME280;3803;51.666;7.630;2022-10-28T02:34:06;101191.72;;;19.80;57.49
7524;BME280;3803;51.666;7.630;2022-10-28T02:34:31;101197.03;;;19.82;57.47
7524;BME280;3803;51.666;7.630;2022-10-28T02:34:55;101184.72;;;19.78;57.49
7524;BME280;3803;51.666;7.630;2022-10-28T02:35:27;101199.69;;;19.83;57.27
7524;BME280;3803;51.666;7.630;2022-10-28T02:36:16;101199.69;;;19.83;57.42
7524;BME280;3803;51.666;7.630;2022-10-28T02:36:41;101194.41;;;19.79;57.48
7524;BME280;3803;51.666;7.630;2022-10-28T02:37:08;101196.16;;;19.78;57.55
7524;BME280;3803;51.666;7.630;2022-10-28T02:37:32;101192.66;;;19.70;57.71
7524;BME280;3803;51.666;7.630;2022-10-28T02:37:54;101190.91;;;19.70;57.71
7524;BME280;3803;51.666;7.630;2022-10-28T02:38:33;101184.72;;;19.71;57.78
7524;BME280;3803;51.666;7.630;2022-10-28T02:38:57;101189.13;;;19.71;57.64
7524;BME280;3803;51.666;7.630;2022-10-28T02:39:22;101185.59;;;19.72;57.63
7524;BME280;3803;51.666;7.630;2022-10-28T02:39:49;101201.47;;;19.73;57.72
7524;BME280;3803;51.666;7.630;2022-10-28T02:40:17;101186.50;;;19.63;57.84
7524;BME280;3803;51.666;7.630;2022-10-28T02:40:39;101201.50;;;19.66;58.06
7524;BME280;3803;51.666;7.630;2022-10-28T02:41:10;101191.81;;;19.57;58.35
7524;BME280;3803;51.666;7.630;2022-10-28T02:41:43;101186.53;;;19.54;58.35
7524;BME280;3803;51.666;7.630;2022-10-28T02:42:11;101198.84;;;19.61;58.40
7524;BME280;3803;51.666;7.630;2022-10-28T02:42:40;101187.41;;;19.54;58.49
7524;BME280;3803;51.666;7.630;2022-10-28T02:43:07;101196.22;;;19.63;58.54
7524;BME280;3803;51.666;7.630;2022-10-28T02:43:32;101189.16;;;19.60;58.55
7524;BME280;3803;51.666;7.630;2022-10-28T02:43:57;101188.28;;;19.64;58.32
7524;BME280;3803;51.666;7.630;2022-10-28T02:44:23;101180.31;;;19.61;58.43
7524;BME280;3803;51.666;7.630;2022-10-28T02:44:48;101187.38;;;19.64;58.19
7524;BME280;3803;51.666;7.630;2022-10-28T02:45:16;101186.50;;;19.60;58.48
7524;BME280;3803;51.666;7.630;2022-10-28T02:45:43;101191.81;;;19.63;58.35
7524;BME280;3803;51.666;7.630;2022-10-28T02:46:07;101200.59;;;19.68;58.55